createdAt,value
2018-03-24T00:00:06.048Z,4.80
2018-03-24T00:02:33.598Z,4.80
2018-03-24T00:05:01.157Z,4.80
2018-03-24T00:07:28.721Z,4.80
2018-03-24T00:09:56.252Z,4.70
2018-03-24T00:12:23.824Z,4.70
2018-03-24T00:14:51.981Z,4.70
2018-03-24T00:17:19.542Z,4.70
2018-03-24T00:19:47.108Z,4.60
2018-03-24T00:22:14.641Z,4.60
2018-03-24T00:24:42.209Z,4.60
2018-03-24T00:27:10.502Z,4.50
2018-03-24T00:29:38.062Z,4.50
2018-03-24T00:32:05.593Z,4.50
2018-03-24T00:34:33.246Z,4.60
2018-03-24T00:37:01.566Z,4.60
2018-03-24T00:39:29.327Z,4.60
2018-03-24T00:41:59.752Z,4.60
2018-03-24T00:44:27.325Z,4.60
2018-03-24T00:46:54.921Z,4.70
2018-03-24T00:49:22.661Z,4.70
2018-03-24T00:51:50.221Z,4.70
2018-03-24T00:54:17.993Z,4.70
2018-03-24T00:56:45.562Z,4.70
2018-03-24T00:59:13.114Z,4.70
2018-03-24T01:01:40.729Z,4.70
2018-03-24T01:04:08.289Z,4.60
2018-03-24T01:06:35.824Z,4.60
2018-03-24T01:09:04.330Z,4.60
2018-03-24T01:11:31.874Z,4.60
2018-03-24T01:14:00.241Z,4.50
2018-03-24T01:16:27.769Z,4.50
2018-03-24T01:18:55.397Z,4.40
2018-03-24T01:21:22.885Z,4.40
2018-03-24T01:23:50.517Z,4.30
2018-03-24T01:26:18.071Z,4.30
2018-03-24T01:28:45.680Z,4.30
2018-03-24T01:31:13.261Z,4.20
2018-03-24T01:33:40.796Z,4.20
2018-03-24T01:36:08.486Z,4.20
2018-03-24T01:38:36.793Z,4.10
2018-03-24T01:41:04.357Z,4.10
2018-03-24T01:43:31.889Z,4.10
2018-03-24T01:46:00.229Z,4.10
2018-03-24T01:48:27.763Z,4.00
2018-03-24T01:50:55.316Z,4.00
2018-03-24T01:53:34.612Z,4.00
2018-03-24T01:56:04.068Z,3.90
2018-03-24T01:58:31.606Z,3.90
2018-03-24T02:00:59.166Z,3.90
2018-03-24T02:03:26.826Z,3.90
2018-03-24T02:05:54.358Z,3.80
2018-03-24T02:08:22.658Z,3.70
2018-03-24T02:10:50.221Z,3.70
2018-03-24T02:13:17.777Z,3.80
2018-03-24T02:15:45.321Z,3.70
2018-03-24T02:18:12.894Z,3.70
2018-03-24T02:20:40.430Z,3.70
2018-03-24T02:23:08.126Z,3.60
2018-03-24T02:25:35.671Z,3.60
2018-03-24T02:28:03.261Z,3.60
2018-03-24T02:30:30.813Z,3.50
2018-03-24T02:32:58.394Z,3.50
2018-03-24T02:35:25.936Z,3.50
2018-03-24T02:37:53.509Z,3.40
2018-03-24T02:40:21.053Z,3.40
2018-03-24T02:42:48.632Z,3.40
2018-03-24T02:45:16.238Z,3.30
2018-03-24T02:47:43.783Z,3.30
2018-03-24T02:50:12.354Z,3.20
2018-03-24T02:52:39.894Z,3.20
2018-03-24T02:55:07.616Z,3.20
2018-03-24T02:57:35.162Z,3.20
2018-03-24T03:00:02.742Z,3.20
2018-03-24T03:02:30.295Z,3.20
2018-03-24T03:04:58.701Z,3.20
2018-03-24T03:07:26.248Z,3.20
2018-03-24T03:09:53.818Z,3.20
2018-03-24T03:12:21.361Z,3.10
2018-03-24T03:14:48.921Z,3.10
2018-03-24T03:17:17.067Z,3.10
2018-03-24T03:19:44.642Z,3.10
2018-03-24T03:22:12.170Z,3.10
2018-03-24T03:24:39.930Z,3.00
2018-03-24T03:27:08.221Z,3.00
2018-03-24T03:29:36.548Z,3.00
2018-03-24T03:32:04.083Z,3.00
2018-03-24T03:34:31.609Z,3.00
2018-03-24T03:37:01.382Z,2.90
2018-03-24T03:39:28.945Z,2.90
2018-03-24T03:41:56.493Z,2.90
2018-03-24T03:44:24.030Z,2.90
2018-03-24T03:46:51.597Z,2.90
2018-03-24T03:49:19.475Z,2.90
2018-03-24T03:51:47.034Z,2.80
2018-03-24T03:54:14.585Z,2.80
2018-03-24T03:56:42.318Z,2.70
2018-03-24T03:59:10.000Z,2.70
2018-03-24T04:01:37.561Z,2.70
2018-03-24T04:04:05.097Z,2.70
2018-03-24T04:06:32.865Z,2.70
2018-03-24T04:09:00.408Z,2.70
2018-03-24T04:11:28.022Z,2.70
2018-03-24T04:13:55.574Z,2.70
2018-03-24T04:16:23.128Z,2.60
2018-03-24T04:18:50.665Z,2.60
2018-03-24T04:21:18.417Z,2.60
2018-03-24T04:23:47.028Z,2.50
2018-03-24T04:26:14.613Z,2.60
2018-03-24T04:28:42.160Z,2.50
2018-03-24T04:31:09.711Z,2.50
2018-03-24T04:33:37.334Z,2.50
2018-03-24T04:36:05.634Z,2.50
2018-03-24T04:38:33.217Z,2.40
2018-03-24T04:41:00.752Z,2.40
2018-03-24T04:43:28.807Z,2.30
2018-03-24T04:45:57.159Z,2.30
2018-03-24T04:48:24.721Z,2.30
2018-03-24T04:50:52.262Z,2.30
2018-03-24T04:53:19.834Z,2.30
2018-03-24T04:55:47.357Z,2.30
2018-03-24T04:58:15.750Z,2.30
2018-03-24T05:00:43.253Z,2.30
2018-03-24T05:03:11.623Z,2.30
2018-03-24T05:05:39.181Z,2.20
2018-03-24T05:08:07.514Z,2.30
2018-03-24T05:10:35.066Z,2.30
2018-03-24T05:13:02.648Z,2.30
2018-03-24T05:15:30.206Z,2.20
2018-03-24T05:17:57.838Z,2.20
2018-03-24T05:20:25.381Z,2.30
2018-03-24T05:22:52.925Z,2.30
2018-03-24T05:25:20.485Z,2.30
2018-03-24T05:27:48.035Z,2.30
2018-03-24T05:30:15.615Z,2.40
2018-03-24T05:32:43.603Z,2.40
2018-03-24T05:35:11.152Z,2.50
2018-03-24T05:37:38.778Z,2.60
2018-03-24T05:40:06.338Z,2.60
2018-03-24T05:42:33.878Z,2.60
2018-03-24T05:45:01.458Z,2.60
2018-03-24T05:47:29.003Z,2.70
2018-03-24T05:49:56.560Z,2.70
2018-03-24T05:52:24.098Z,2.80
2018-03-24T05:54:51.657Z,2.80
2018-03-24T05:57:19.197Z,2.90
2018-03-24T05:59:46.859Z,3.00
2018-03-24T06:02:14.419Z,3.00
2018-03-24T06:04:41.957Z,3.10
2018-03-24T06:07:09.511Z,3.10
2018-03-24T06:09:37.052Z,3.30
2018-03-24T06:12:04.616Z,3.40
2018-03-24T06:14:33.039Z,3.50
2018-03-24T06:17:00.637Z,3.50
2018-03-24T06:19:30.883Z,3.70
2018-03-24T06:21:59.502Z,3.70
2018-03-24T06:24:27.040Z,3.70
2018-03-24T06:26:54.595Z,3.80
2018-03-24T06:29:22.264Z,3.90
2018-03-24T06:31:49.909Z,4.00
2018-03-24T06:34:18.308Z,4.20
2018-03-24T06:36:51.434Z,4.20
2018-03-24T06:39:18.978Z,4.30
2018-03-24T06:41:46.736Z,4.40
2018-03-24T06:44:14.484Z,4.50
2018-03-24T06:46:42.076Z,4.50
2018-03-24T06:49:12.464Z,4.50
2018-03-24T06:51:41.769Z,4.50
2018-03-24T06:54:09.330Z,4.50
2018-03-24T06:56:38.070Z,4.60
2018-03-24T06:59:06.154Z,4.60
2018-03-24T07:01:33.791Z,4.70
2018-03-24T07:04:01.353Z,4.70
2018-03-24T07:06:28.896Z,4.80
2018-03-24T07:08:56.453Z,4.80
2018-03-24T07:11:24.026Z,4.90
2018-03-24T07:13:51.584Z,5.00
2018-03-24T07:16:19.149Z,5.10
2018-03-24T07:18:46.706Z,5.10
2018-03-24T07:21:14.338Z,5.20
2018-03-24T07:23:41.871Z,5.30
2018-03-24T07:26:09.430Z,5.30
2018-03-24T07:28:37.746Z,5.50
2018-03-24T07:31:05.300Z,5.40
2018-03-24T07:33:32.855Z,5.50
2018-03-24T07:36:00.390Z,5.60
2018-03-24T07:38:28.073Z,5.60
2018-03-24T07:40:55.660Z,5.70
2018-03-24T07:43:23.406Z,5.80
2018-03-24T07:45:51.229Z,5.90
2018-03-24T07:48:18.774Z,6.00
2018-03-24T07:50:46.330Z,6.10
2018-03-24T07:53:15.793Z,6.20
2018-03-24T07:55:43.340Z,6.20
2018-03-24T07:58:10.919Z,6.30
2018-03-24T08:00:38.670Z,6.40
2018-03-24T08:03:06.228Z,6.50
2018-03-24T08:05:33.793Z,6.60
2018-03-24T08:08:01.346Z,6.70
2018-03-24T08:10:28.980Z,6.70
2018-03-24T08:12:56.566Z,6.80
2018-03-24T08:15:24.128Z,6.90
2018-03-24T08:17:51.658Z,7.00
2018-03-24T08:20:22.049Z,7.10
2018-03-24T08:22:49.624Z,7.20
2018-03-24T08:25:17.214Z,7.30
2018-03-24T08:27:44.744Z,7.40
2018-03-24T08:30:12.349Z,7.50
2018-03-24T08:32:40.117Z,7.60
2018-03-24T08:35:07.686Z,7.70
2018-03-24T08:37:35.221Z,7.80
2018-03-24T08:40:02.828Z,7.90
2018-03-24T08:42:30.379Z,8.00
2018-03-24T08:44:57.952Z,8.10
2018-03-24T08:47:25.558Z,8.20
2018-03-24T08:49:53.130Z,8.40
2018-03-24T08:52:20.866Z,8.40
2018-03-24T08:54:49.196Z,8.60
2018-03-24T08:57:16.800Z,8.60
2018-03-24T08:59:45.139Z,8.80
2018-03-24T09:02:12.682Z,8.80
2018-03-24T09:04:40.253Z,9.00
2018-03-24T09:07:07.822Z,9.00
2018-03-24T09:09:35.370Z,9.10
2018-03-24T09:15:12.916Z,9.20
2018-03-24T09:17:40.509Z,9.40
2018-03-24T09:20:08.284Z,9.50
2018-03-24T09:22:36.033Z,9.60
2018-03-24T09:25:03.616Z,9.70
2018-03-24T09:27:31.181Z,9.80
2018-03-24T09:29:58.799Z,9.80
2018-03-24T09:32:27.200Z,9.90
2018-03-24T09:34:54.768Z,9.90
2018-03-24T09:37:22.374Z,10.00
2018-03-24T09:39:50.017Z,10.00
2018-03-24T09:42:17.587Z,10.10
2018-03-24T09:44:45.184Z,10.20
2018-03-24T09:47:13.024Z,10.20
2018-03-24T09:49:40.574Z,10.30
2018-03-24T09:52:08.138Z,10.40
2018-03-24T09:54:35.680Z,10.50
2018-03-24T09:57:03.287Z,10.60
2018-03-24T09:59:31.694Z,10.70
2018-03-24T10:01:59.270Z,10.70
2018-03-24T10:04:28.621Z,10.80
2018-03-24T10:06:56.197Z,10.90
2018-03-24T10:09:23.837Z,11.00
2018-03-24T10:11:52.138Z,11.10
2018-03-24T10:14:19.697Z,11.10
2018-03-24T10:16:47.272Z,11.10
2018-03-24T10:19:14.830Z,11.20
2018-03-24T10:24:37.123Z,11.20
2018-03-24T10:27:04.705Z,11.20
2018-03-24T10:29:33.070Z,10.50
2018-03-24T10:32:01.028Z,10.50
2018-03-24T10:34:28.647Z,10.10
2018-03-24T10:36:56.211Z,9.80
2018-03-24T10:39:23.783Z,9.50
2018-03-24T10:41:51.434Z,9.30
2018-03-24T10:44:19.270Z,9.20
2018-03-24T10:46:46.822Z,9.10
2018-03-24T10:49:15.162Z,9.10
2018-03-24T10:51:42.756Z,9.10
2018-03-24T10:54:11.133Z,9.00
2018-03-24T10:56:38.712Z,9.00
2018-03-24T10:59:07.071Z,9.00
2018-03-24T11:01:34.612Z,8.90
2018-03-24T11:04:02.178Z,9.10
2018-03-24T11:06:29.749Z,9.10
2018-03-24T11:08:58.085Z,10.00
2018-03-24T11:11:25.689Z,10.00
2018-03-24T11:13:54.057Z,10.10
2018-03-24T11:16:21.681Z,10.10
2018-03-24T11:18:49.258Z,10.10
2018-03-24T11:21:16.817Z,10.10
2018-03-24T11:23:44.380Z,10.10
2018-03-24T11:26:11.956Z,10.00
2018-03-24T11:28:39.532Z,10.00
2018-03-24T11:31:07.875Z,10.00
2018-03-24T11:33:35.606Z,10.00
2018-03-24T11:36:03.165Z,10.00
2018-03-24T11:38:30.887Z,10.10
2018-03-24T11:40:58.454Z,10.10
2018-03-24T11:43:26.032Z,10.10
2018-03-24T11:45:53.620Z,10.10
2018-03-24T11:48:21.210Z,10.20
2018-03-24T11:50:48.833Z,10.30
2018-03-24T11:53:16.399Z,10.30
2018-03-24T11:55:43.993Z,10.50
2018-03-24T11:58:11.718Z,10.60
2018-03-24T12:00:39.342Z,10.60
2018-03-24T12:03:07.694Z,10.90
2018-03-24T12:05:35.424Z,10.80
2018-03-24T12:08:02.990Z,11.00
2018-03-24T12:10:30.553Z,11.10
2018-03-24T12:12:58.165Z,11.20
2018-03-24T12:15:25.754Z,11.20
2018-03-24T12:17:53.316Z,11.20
2018-03-24T12:20:20.882Z,11.10
2018-03-24T12:22:48.441Z,11.10
2018-03-24T12:25:16.008Z,11.00
2018-03-24T12:27:43.556Z,11.00
2018-03-24T12:30:11.118Z,11.00
2018-03-24T12:32:38.774Z,11.00
2018-03-24T12:35:06.338Z,11.00
2018-03-24T12:37:34.090Z,11.00
2018-03-24T12:40:01.857Z,11.00
2018-03-24T12:42:29.387Z,11.00
2018-03-24T12:44:57.732Z,11.10
2018-03-24T12:47:25.272Z,11.10
2018-03-24T12:49:52.844Z,11.10
2018-03-24T12:52:20.398Z,11.20
2018-03-24T12:54:47.934Z,11.20
2018-03-24T12:57:15.474Z,11.30
2018-03-24T12:59:43.051Z,11.40
2018-03-24T13:02:10.603Z,11.60
2018-03-24T13:04:38.271Z,11.80
2018-03-24T13:07:05.808Z,12.00
2018-03-24T13:09:34.144Z,12.20
2018-03-24T13:12:01.706Z,12.20
2018-03-24T13:14:29.494Z,12.30
2018-03-24T13:16:57.054Z,12.30
2018-03-24T13:19:25.394Z,12.40
2018-03-24T13:21:52.978Z,12.40
2018-03-24T13:24:20.562Z,12.30
2018-03-24T13:26:48.115Z,12.20
2018-03-24T13:29:16.442Z,12.10
2018-03-24T13:31:43.997Z,12.00
2018-03-24T13:34:11.585Z,12.00
2018-03-24T13:36:39.134Z,12.00
2018-03-24T13:39:06.708Z,11.90
2018-03-24T13:41:34.261Z,11.90
2018-03-24T13:44:01.846Z,11.80
2018-03-24T13:46:29.420Z,11.80
2018-03-24T13:48:57.761Z,11.70
2018-03-24T13:51:25.482Z,11.70
2018-03-24T13:53:53.046Z,11.70
2018-03-24T13:56:20.643Z,11.60
2018-03-24T13:58:48.177Z,11.60
2018-03-24T14:01:15.730Z,11.50
2018-03-24T14:03:43.309Z,11.50
2018-03-24T14:06:10.889Z,11.50
2018-03-24T14:08:38.481Z,11.50
2018-03-24T14:11:06.071Z,11.50
2018-03-24T14:13:33.654Z,11.50
2018-03-24T14:16:01.236Z,11.50
2018-03-24T14:18:28.810Z,11.60
2018-03-24T14:20:57.173Z,11.60
2018-03-24T14:23:24.738Z,11.60
2018-03-24T14:25:53.055Z,11.80
2018-03-24T14:28:20.821Z,11.80
2018-03-24T14:30:48.383Z,11.80
2018-03-24T14:33:15.973Z,11.90
2018-03-24T14:35:43.553Z,11.90
2018-03-24T14:38:11.142Z,11.90
2018-03-24T14:40:38.685Z,11.90
2018-03-24T14:43:06.248Z,12.00
2018-03-24T14:45:34.571Z,12.10
2018-03-24T14:48:02.323Z,12.10
2018-03-24T14:50:29.876Z,12.30
2018-03-24T14:52:57.453Z,12.30
2018-03-24T14:55:25.232Z,12.40
2018-03-24T14:57:52.841Z,12.40
2018-03-24T15:00:20.391Z,12.40
2018-03-24T15:02:47.941Z,12.40
2018-03-24T15:05:16.286Z,12.40
2018-03-24T15:07:43.868Z,12.40
2018-03-24T15:10:11.425Z,12.40
2018-03-24T15:12:39.016Z,12.40
2018-03-24T15:15:06.665Z,12.40
2018-03-24T15:17:35.022Z,12.40
2018-03-24T15:20:02.580Z,12.40
2018-03-24T15:22:30.410Z,12.80
2018-03-24T15:24:58.148Z,12.70
2018-03-24T15:27:25.758Z,12.60
2018-03-24T15:30:05.145Z,12.50
2018-03-24T15:32:54.524Z,12.40
2018-03-24T15:35:32.134Z,12.30
2018-03-24T15:37:59.717Z,12.20
2018-03-24T15:40:27.251Z,12.10
2018-03-24T15:42:54.834Z,12.00
2018-03-24T15:45:22.398Z,11.90
2018-03-24T15:47:49.973Z,11.80
2018-03-24T15:50:17.519Z,11.70
2018-03-24T15:52:45.099Z,11.60
2018-03-24T15:55:12.672Z,11.50
2018-03-24T15:57:41.169Z,11.20
2018-03-24T16:00:08.805Z,11.20
2018-03-24T16:02:37.133Z,11.00
2018-03-24T16:05:04.722Z,11.00
2018-03-24T16:07:32.277Z,10.90
2018-03-24T16:09:59.874Z,10.90
2018-03-24T16:12:28.194Z,10.70
2018-03-24T16:14:55.795Z,10.70
2018-03-24T16:17:24.119Z,10.50
2018-03-24T16:19:51.694Z,10.40
2018-03-24T16:22:19.293Z,10.30
2018-03-24T16:24:47.004Z,10.20
2018-03-24T16:27:14.545Z,10.10
2018-03-24T16:29:42.087Z,10.00
2018-03-24T16:32:09.642Z,9.90
2018-03-24T16:34:37.207Z,9.80
2018-03-24T16:37:04.790Z,9.70
2018-03-24T16:39:32.320Z,9.60
2018-03-24T16:41:59.890Z,9.50
2018-03-24T16:44:28.210Z,9.30
2018-03-24T16:46:55.830Z,9.30
2018-03-24T16:49:23.492Z,9.30
2018-03-24T16:51:52.181Z,9.10
2018-03-24T16:54:20.483Z,9.00
2018-03-24T16:56:48.067Z,9.00
2018-03-24T16:59:15.803Z,9.00
2018-03-24T17:01:43.410Z,8.90
2018-03-24T17:04:11.230Z,8.80
2018-03-24T17:06:39.113Z,8.70
2018-03-24T17:09:07.372Z,8.60
2018-03-24T17:11:34.939Z,8.50
2018-03-24T17:14:02.733Z,8.40
2018-03-24T17:16:30.313Z,8.40
2018-03-24T17:18:57.854Z,8.30
2018-03-24T17:21:25.457Z,8.20
2018-03-24T17:23:53.056Z,8.10
2018-03-24T17:26:20.656Z,8.00
2018-03-24T17:28:49.280Z,7.90
2018-03-24T17:31:16.986Z,7.90
2018-03-24T17:33:44.530Z,7.90
2018-03-24T17:36:12.221Z,7.80
2018-03-24T17:38:39.766Z,7.80
2018-03-24T17:41:07.400Z,7.70
2018-03-24T17:43:35.022Z,7.70
2018-03-24T17:46:02.596Z,7.60
2018-03-24T17:48:30.186Z,7.60
2018-03-24T17:50:57.740Z,7.50
2018-03-24T17:53:25.369Z,7.50
2018-03-24T17:55:52.988Z,7.50
2018-03-24T17:58:20.614Z,7.40
2018-03-24T18:00:48.173Z,7.30
2018-03-24T18:03:15.766Z,7.30
2018-03-24T18:05:43.324Z,7.30
2018-03-24T18:08:10.945Z,7.20
2018-03-24T18:10:38.727Z,7.20
2018-03-24T18:13:06.294Z,7.10
2018-03-24T18:15:33.887Z,7.10
2018-03-24T18:18:01.441Z,7.00
2018-03-24T18:20:29.058Z,6.90
2018-03-24T18:22:56.620Z,6.90
2018-03-24T18:25:24.234Z,6.90
2018-03-24T18:27:51.807Z,6.80
2018-03-24T18:30:20.154Z,6.80
2018-03-24T18:32:48.480Z,6.70
2018-03-24T18:35:16.078Z,6.70
2018-03-24T18:37:43.662Z,6.70
2018-03-24T18:40:11.278Z,6.60
2018-03-24T18:42:38.833Z,6.60
2018-03-24T18:45:06.401Z,6.60
2018-03-24T18:47:33.940Z,6.50
2018-03-24T18:50:01.520Z,6.50
2018-03-24T18:52:29.069Z,6.50
2018-03-24T18:54:56.626Z,6.40
2018-03-24T18:57:24.332Z,6.30
2018-03-24T18:59:51.987Z,6.30
2018-03-24T19:02:19.544Z,6.20
2018-03-24T19:04:47.271Z,6.20
2018-03-24T19:07:14.846Z,6.20
2018-03-24T19:09:42.405Z,6.10
2018-03-24T19:12:09.974Z,6.00
2018-03-24T19:14:37.518Z,6.00
2018-03-24T19:17:05.096Z,6.00
2018-03-24T19:19:32.646Z,6.00
2018-03-24T19:22:00.205Z,5.90
2018-03-24T19:24:28.012Z,5.90
2018-03-24T19:26:56.431Z,5.80
2018-03-24T19:29:24.144Z,5.80
2018-03-24T19:31:51.724Z,5.80
2018-03-24T19:34:19.267Z,5.70
2018-03-24T19:36:47.026Z,5.70
2018-03-24T19:39:16.070Z,5.60
2018-03-24T19:41:43.713Z,5.70
2018-03-24T19:44:12.217Z,5.60
2018-03-24T19:46:39.980Z,5.60
2018-03-24T19:49:07.718Z,5.60
2018-03-24T19:51:35.454Z,5.60
2018-03-24T19:54:03.987Z,5.50
2018-03-24T19:56:32.924Z,5.50
2018-03-24T19:59:00.664Z,5.50
2018-03-24T20:01:28.472Z,5.40
2018-03-24T20:03:56.805Z,5.40
2018-03-24T20:06:24.371Z,5.40
2018-03-24T20:08:51.948Z,5.40
2018-03-24T20:11:20.271Z,5.30
2018-03-24T20:13:47.944Z,5.30
2018-03-24T20:16:15.714Z,5.20
2018-03-24T20:18:43.295Z,5.20
2018-03-24T20:21:12.638Z,5.20
2018-03-24T20:23:41.022Z,5.10
2018-03-24T20:26:08.815Z,5.10
2018-03-24T20:28:36.458Z,5.10
2018-03-24T20:31:04.006Z,5.10
2018-03-24T20:33:31.696Z,5.10
2018-03-24T20:35:59.360Z,5.10
2018-03-24T20:38:26.929Z,5.10
2018-03-24T20:40:54.473Z,5.10
2018-03-24T20:43:22.054Z,5.00
2018-03-24T20:45:49.601Z,5.00
2018-03-24T20:48:18.974Z,4.90
2018-03-24T20:50:47.754Z,4.90
2018-03-24T20:53:15.310Z,4.90
2018-03-24T20:55:43.685Z,4.80
2018-03-24T20:58:11.496Z,4.80
2018-03-24T21:00:39.069Z,4.80
2018-03-24T21:03:06.712Z,4.80
2018-03-24T21:05:34.338Z,4.70
2018-03-24T21:08:02.134Z,4.70
2018-03-24T21:10:29.707Z,4.70
2018-03-24T21:12:57.253Z,4.70
2018-03-24T21:15:24.820Z,4.60
2018-03-24T21:17:52.355Z,4.60
2018-03-24T21:20:19.914Z,4.50
2018-03-24T21:22:47.488Z,4.50
2018-03-24T21:25:15.044Z,4.50
2018-03-24T21:27:42.610Z,4.50
2018-03-24T21:30:10.205Z,4.40
2018-03-24T21:32:37.793Z,4.40
2018-03-24T21:35:05.347Z,4.40
2018-03-24T21:37:32.909Z,4.40
2018-03-24T21:40:00.613Z,4.40
2018-03-24T21:42:28.177Z,4.40
2018-03-24T21:44:55.729Z,4.40
2018-03-24T21:47:23.301Z,4.40
2018-03-24T21:49:50.847Z,4.40
2018-03-24T21:52:18.409Z,4.30
2018-03-24T21:54:46.060Z,4.20
2018-03-24T21:57:13.626Z,4.10
2018-03-24T21:59:41.160Z,4.10
2018-03-24T22:02:09.489Z,4.10
2018-03-24T22:04:37.033Z,4.10
2018-03-24T22:07:04.621Z,4.10
2018-03-24T22:09:32.182Z,4.10
2018-03-24T22:11:59.748Z,4.10
2018-03-24T22:14:27.473Z,4.00
2018-03-24T22:16:55.040Z,4.00
2018-03-24T22:19:22.613Z,3.90
2018-03-24T22:21:50.173Z,3.90
2018-03-24T22:24:17.789Z,3.90
2018-03-24T22:26:45.354Z,3.80
2018-03-24T22:29:13.029Z,3.80
2018-03-24T22:31:40.598Z,3.80
2018-03-24T22:34:08.351Z,3.80
2018-03-24T22:36:35.917Z,3.80
2018-03-24T22:39:03.466Z,3.80
2018-03-24T22:41:31.031Z,3.80
2018-03-24T22:43:58.601Z,3.70
2018-03-24T22:46:26.204Z,3.70
2018-03-24T22:48:53.825Z,3.70
2018-03-24T22:51:21.547Z,3.70
2018-03-24T22:53:49.098Z,3.70
2018-03-24T22:56:17.577Z,3.70
2018-03-24T22:58:45.912Z,3.60
2018-03-24T23:01:13.590Z,3.60
2018-03-24T23:03:41.214Z,3.60
2018-03-24T23:06:08.801Z,3.60
2018-03-24T23:08:36.383Z,3.50
2018-03-24T23:11:03.954Z,3.50
2018-03-24T23:13:32.281Z,3.40
2018-03-24T23:15:59.841Z,3.40
2018-03-24T23:18:27.492Z,3.40
2018-03-24T23:20:55.044Z,3.40
2018-03-24T23:23:22.634Z,3.40
2018-03-24T23:25:50.214Z,3.40
2018-03-24T23:28:18.529Z,3.30
2018-03-24T23:30:46.110Z,3.30
2018-03-24T23:33:13.664Z,3.30
2018-03-24T23:35:41.237Z,3.30
2018-03-24T23:38:08.786Z,3.20
2018-03-24T23:40:36.376Z,3.20
2018-03-24T23:43:04.144Z,3.20
2018-03-24T23:45:31.754Z,3.20
2018-03-24T23:47:59.634Z,3.20
2018-03-24T23:50:27.296Z,3.10
2018-03-24T23:52:54.989Z,3.10
2018-03-24T23:55:22.572Z,3.10
2018-03-24T23:57:50.134Z,3.00
